createdAt,value
2023-04-13T00:01:43.886Z,93596
2023-04-13T00:05:09.040Z,93613
2023-04-13T00:08:34.158Z,93580
2023-04-13T00:11:59.346Z,93591
2023-04-13T00:15:24.509Z,93596
2023-04-13T00:18:49.696Z,93596
2023-04-13T00:22:14.861Z,93598
2023-04-13T00:25:40.040Z,93610
2023-04-13T00:29:05.255Z,93627
2023-04-13T00:32:30.410Z,93621
2023-04-13T00:35:55.583Z,93620
2023-04-13T00:39:20.758Z,93616
2023-04-13T00:42:45.932Z,93611
2023-04-13T00:46:11.174Z,93623
2023-04-13T00:49:36.266Z,93624
2023-04-13T00:53:01.414Z,93607
2023-04-13T00:56:26.588Z,93619
2023-04-13T00:59:51.784Z,93624
2023-04-13T01:03:17.132Z,93621
2023-04-13T01:06:42.177Z,93629
2023-04-13T01:10:07.307Z,93616
2023-04-13T01:13:32.513Z,93608
2023-04-13T01:16:57.674Z,93607
2023-04-13T01:20:22.865Z,93601
2023-04-13T01:23:48.026Z,93609
2023-04-13T01:27:13.228Z,93620
2023-04-13T01:30:38.377Z,93629
2023-04-13T01:34:03.566Z,93657
2023-04-13T01:37:28.753Z,93647
2023-04-13T01:40:53.914Z,93641
2023-04-13T01:44:19.107Z,93652
2023-04-13T01:47:44.334Z,93650
2023-04-13T01:51:09.496Z,93650
2023-04-13T01:54:34.686Z,93649
2023-04-13T01:57:59.856Z,93645
2023-04-13T02:01:25.072Z,93646
2023-04-13T02:04:50.195Z,93657
2023-04-13T02:08:15.401Z,93660
2023-04-13T02:11:40.608Z,93658
2023-04-13T02:15:05.776Z,93647
2023-04-13T02:18:30.973Z,93650
2023-04-13T02:21:56.114Z,93649
2023-04-13T02:25:21.377Z,93651
2023-04-13T02:28:46.555Z,93656
2023-04-13T02:32:11.847Z,93655
2023-04-13T02:35:36.924Z,93651
2023-04-13T02:39:02.116Z,93656
2023-04-13T02:42:27.282Z,93665
2023-04-13T02:45:52.517Z,93660
2023-04-13T02:49:17.634Z,93667
2023-04-13T02:52:42.825Z,93664
2023-04-13T02:56:08.001Z,93658
2023-04-13T02:59:33.175Z,93659
2023-04-13T03:02:58.499Z,93644
2023-04-13T03:06:23.566Z,93644
2023-04-13T03:09:48.719Z,93645
2023-04-13T03:13:13.901Z,93644
2023-04-13T03:16:39.169Z,93637
2023-04-13T03:20:04.280Z,93628
2023-04-13T03:23:29.445Z,93632
2023-04-13T03:26:54.612Z,93634
2023-04-13T03:30:19.790Z,93630
2023-04-13T03:33:44.977Z,93641
2023-04-13T03:37:10.188Z,93639
2023-04-13T03:40:35.345Z,93643
2023-04-13T03:44:00.675Z,93653
2023-04-13T03:47:25.706Z,93654
2023-04-13T03:50:50.884Z,93648
2023-04-13T03:54:16.098Z,93646
2023-04-13T03:57:41.220Z,93645
2023-04-13T04:01:06.401Z,93644
2023-04-13T04:04:31.622Z,93643
2023-04-13T04:07:56.747Z,93654
2023-04-13T04:11:21.951Z,93656
2023-04-13T04:14:47.073Z,93661
2023-04-13T04:18:12.268Z,93663
2023-04-13T04:21:37.425Z,93659
2023-04-13T04:25:02.592Z,93663
2023-04-13T04:28:27.798Z,93677
2023-04-13T04:31:53.011Z,93688
2023-04-13T04:35:18.166Z,93679
2023-04-13T04:38:43.337Z,93685
2023-04-13T04:42:08.518Z,93696
2023-04-13T04:45:33.824Z,93697
2023-04-13T04:48:59.027Z,93702
2023-04-13T04:52:25.196Z,93705
2023-04-13T04:55:49.351Z,93712
2023-04-13T04:59:14.515Z,93714
2023-04-13T05:02:39.839Z,93707
2023-04-13T05:06:04.819Z,93715
2023-04-13T05:09:29.968Z,93725
2023-04-13T05:12:55.162Z,93729
2023-04-13T05:16:20.406Z,93718
2023-04-13T05:19:45.543Z,93717
2023-04-13T05:23:10.697Z,93716
2023-04-13T05:26:35.864Z,93716
2023-04-13T05:30:01.045Z,93712
2023-04-13T05:33:26.231Z,93719
2023-04-13T05:36:51.447Z,93716
2023-04-13T05:40:16.558Z,93714
2023-04-13T05:43:41.734Z,93720
2023-04-13T05:47:07.727Z,93725
2023-04-13T05:50:34.899Z,93729
2023-04-13T05:54:00.562Z,93737
2023-04-13T05:57:25.705Z,93735
2023-04-13T06:00:50.949Z,93734
2023-04-13T06:04:16.261Z,93735
2023-04-13T06:07:41.298Z,93730
2023-04-13T06:11:06.521Z,93731
2023-04-13T06:14:31.715Z,93732
2023-04-13T06:17:56.886Z,93732
2023-04-13T06:21:22.094Z,93724
2023-04-13T06:24:47.282Z,93726
2023-04-13T06:28:12.481Z,93718
2023-04-13T06:31:37.661Z,93719
2023-04-13T06:35:02.851Z,93721
2023-04-13T06:38:27.968Z,93725
2023-04-13T06:41:53.152Z,93727
2023-04-13T06:45:18.349Z,93730
2023-04-13T06:48:43.529Z,93732
2023-04-13T06:52:08.700Z,93726
2023-04-13T06:55:33.888Z,93716
2023-04-13T06:59:00.871Z,93715
2023-04-13T07:02:24.389Z,93712
2023-04-13T07:05:49.430Z,93709
2023-04-13T07:09:14.615Z,93709
2023-04-13T07:12:39.798Z,93712
2023-04-13T07:16:04.994Z,93709
2023-04-13T07:19:30.193Z,93720
2023-04-13T07:22:55.336Z,93723
2023-04-13T07:26:20.518Z,93722
2023-04-13T07:29:45.715Z,93727
2023-04-13T07:33:11.230Z,93736
2023-04-13T07:36:36.426Z,93731
2023-04-13T07:40:01.617Z,93758
2023-04-13T07:43:26.794Z,93750
2023-04-13T07:46:52.001Z,93758
2023-04-13T07:50:17.169Z,93753
2023-04-13T07:53:42.401Z,93758
2023-04-13T07:57:07.572Z,93759
2023-04-13T08:00:32.791Z,93758
2023-04-13T08:03:58.116Z,93760
2023-04-13T08:07:23.223Z,93763
2023-04-13T08:10:48.403Z,93763
2023-04-13T08:14:13.556Z,93771
2023-04-13T08:17:38.747Z,93784
2023-04-13T08:21:03.926Z,93784
2023-04-13T08:24:29.110Z,93792
2023-04-13T08:27:54.904Z,93794
2023-04-13T08:31:20.064Z,93800
2023-04-13T08:34:45.212Z,93803
2023-04-13T08:38:10.414Z,93811
2023-04-13T08:41:36.999Z,93802
2023-04-13T08:45:00.810Z,93802
2023-04-13T08:48:25.914Z,93810
2023-04-13T08:51:51.062Z,93801
2023-04-13T08:55:16.329Z,93800
2023-04-13T08:58:41.510Z,93820
2023-04-13T09:02:06.771Z,93802
2023-04-13T09:05:31.818Z,93801
2023-04-13T09:08:57.217Z,93808
2023-04-13T09:12:22.176Z,93805
2023-04-13T09:15:47.440Z,93802
2023-04-13T09:19:12.540Z,93814
2023-04-13T09:22:37.689Z,93811
2023-04-13T09:26:02.829Z,93828
2023-04-13T09:29:28.075Z,93832
2023-04-13T09:32:53.326Z,93833
2023-04-13T09:36:18.574Z,93837
2023-04-13T09:39:43.758Z,93842
2023-04-13T09:43:08.943Z,93840
2023-04-13T09:46:34.178Z,93844
2023-04-13T09:49:59.370Z,93847
2023-04-13T09:53:24.634Z,93849
2023-04-13T09:56:49.862Z,93848
2023-04-13T10:00:15.735Z,93851
2023-04-13T10:03:40.300Z,93846
2023-04-13T10:07:05.506Z,93843
2023-04-13T10:10:30.714Z,93845
2023-04-13T10:13:55.898Z,93852
2023-04-13T10:17:21.208Z,93867
2023-04-13T10:20:46.321Z,93865
2023-04-13T10:24:12.035Z,93866
2023-04-13T10:27:36.764Z,93863
2023-04-13T10:31:01.944Z,93865
2023-04-13T10:34:27.192Z,93858
2023-04-13T10:37:52.382Z,93847
2023-04-13T10:41:17.576Z,93854
2023-04-13T10:44:42.844Z,93857
2023-04-13T10:48:08.096Z,93861
2023-04-13T10:51:33.222Z,93868
2023-04-13T10:54:58.489Z,93862
2023-04-13T10:58:23.735Z,93868
2023-04-13T11:01:49.018Z,93867
2023-04-13T11:05:14.157Z,93865
2023-04-13T11:08:39.436Z,93862
2023-04-13T11:12:04.635Z,93861
2023-04-13T11:15:29.882Z,93861
2023-04-13T11:18:55.439Z,93847
2023-04-13T11:22:20.368Z,93851
2023-04-13T11:25:45.595Z,93843
2023-04-13T11:29:10.822Z,93846
2023-04-13T11:32:36.077Z,93845
2023-04-13T11:36:01.315Z,93847
2023-04-13T11:39:26.562Z,93855
2023-04-13T11:42:51.784Z,93852
2023-04-13T11:46:17.062Z,93850
2023-04-13T11:49:42.324Z,93848
2023-04-13T11:53:07.633Z,93842
2023-04-13T11:56:32.830Z,93851
2023-04-13T11:59:58.120Z,93859
2023-04-13T12:03:34.912Z,93877
2023-04-13T12:06:48.785Z,93877
2023-04-13T12:10:23.080Z,93879
2023-04-13T12:13:39.948Z,93871
2023-04-13T12:17:12.567Z,93865
2023-04-13T12:20:29.449Z,93868
2023-04-13T12:23:54.690Z,93866
2023-04-13T12:27:19.901Z,93873
2023-04-13T12:30:45.103Z,93881
2023-04-13T12:34:10.358Z,93880
2023-04-13T12:37:35.759Z,93879
2023-04-13T12:41:00.964Z,93883
2023-04-13T12:44:26.279Z,93882
2023-04-13T12:47:51.532Z,93879
2023-04-13T12:51:16.806Z,93880
2023-04-13T12:54:42.085Z,93885
2023-04-13T12:58:07.479Z,93890
2023-04-13T13:01:32.814Z,93881
2023-04-13T13:04:58.042Z,93891
2023-04-13T13:08:23.294Z,93893
2023-04-13T13:11:48.568Z,93893
2023-04-13T13:15:13.833Z,93892
2023-04-13T13:18:50.198Z,93887
2023-04-13T13:22:04.912Z,93889
2023-04-13T13:25:30.223Z,93887
2023-04-13T13:28:55.547Z,93889
2023-04-13T13:32:20.917Z,93890
2023-04-13T13:35:46.213Z,93892
2023-04-13T13:39:11.439Z,93885
2023-04-13T13:42:48.124Z,93885
2023-04-13T13:46:02.085Z,93893
2023-04-13T13:49:27.324Z,93890
2023-04-13T13:53:02.886Z,93886
2023-04-13T13:56:17.850Z,93885
2023-04-13T13:59:43.086Z,93891
2023-04-13T14:03:08.571Z,93885
2023-04-13T14:06:33.644Z,93888
2023-04-13T14:09:58.954Z,93896
2023-04-13T14:13:24.191Z,93899
2023-04-13T14:16:49.472Z,93899
2023-04-13T14:20:14.773Z,93903
2023-04-13T14:23:40.101Z,93908
2023-04-13T14:27:05.368Z,93904
2023-04-13T14:30:31.077Z,93912
2023-04-13T14:33:56.361Z,93915
2023-04-13T14:37:21.606Z,93912
2023-04-13T14:40:46.866Z,93914
2023-04-13T14:44:12.127Z,93916
2023-04-13T14:47:37.381Z,93922
2023-04-13T14:51:02.597Z,93924
2023-04-13T14:54:27.952Z,93926
2023-04-13T14:57:53.256Z,93925
2023-04-13T15:01:18.549Z,93929
2023-04-13T15:04:43.855Z,93931
2023-04-13T15:40:57.928Z,93955
2023-04-13T15:44:23.333Z,93950
2023-04-13T15:47:48.770Z,93951
2023-04-13T15:51:14.118Z,93945
2023-04-13T15:54:39.510Z,93944
2023-04-13T15:58:04.854Z,93935
2023-04-13T16:01:30.302Z,93940
2023-04-13T16:04:55.657Z,93938
2023-04-13T16:08:21.030Z,93939
2023-04-13T16:11:46.394Z,93937
2023-04-13T16:15:11.839Z,93933
2023-04-13T16:18:37.232Z,93933
2023-04-13T16:22:02.590Z,93935
2023-04-13T16:25:27.963Z,93939
2023-04-13T16:28:53.349Z,93939
2023-04-13T16:32:18.723Z,93941
2023-04-13T16:35:44.106Z,93936
2023-04-13T16:39:10.829Z,93936
2023-04-13T16:42:34.859Z,93927
2023-04-13T16:46:00.264Z,93925
2023-04-13T16:49:25.680Z,93924
2023-04-13T16:52:51.008Z,93928
2023-04-13T16:56:17.230Z,93937
2023-04-13T16:59:41.906Z,93954
2023-04-13T17:03:07.346Z,93969
2023-04-13T17:06:32.677Z,93975
2023-04-13T17:09:58.092Z,93976
2023-04-13T17:13:23.417Z,93988
2023-04-13T17:16:48.819Z,93991
2023-04-13T17:20:16.428Z,93984
2023-04-13T17:23:39.621Z,93995
2023-04-13T17:27:04.967Z,94001
2023-04-13T17:30:30.349Z,94001
2023-04-13T17:33:55.724Z,94004
2023-04-13T17:37:21.089Z,94009
2023-04-13T17:40:46.484Z,94017
2023-04-13T17:44:11.831Z,94031
2023-04-13T17:47:37.254Z,94035
2023-04-13T17:51:02.610Z,94040
2023-04-13T17:54:27.970Z,94046
2023-04-13T17:57:53.334Z,94046
2023-04-13T18:01:18.632Z,94052
2023-04-13T18:04:43.981Z,94059
2023-04-13T18:08:09.336Z,94057
2023-04-13T18:11:34.686Z,94056
2023-04-13T18:15:00.096Z,94054
2023-04-13T18:18:25.415Z,94055
2023-04-13T18:21:50.756Z,94065
2023-04-13T18:25:16.138Z,94069
2023-04-13T18:28:41.459Z,94074
2023-04-13T18:32:06.837Z,94068
2023-04-13T18:35:32.161Z,94082
2023-04-13T18:38:57.528Z,94082
2023-04-13T18:42:22.869Z,94082
2023-04-13T18:45:48.219Z,94084
2023-04-13T18:49:13.640Z,94086
2023-04-13T18:52:38.974Z,94087
2023-04-13T18:56:04.306Z,94089
2023-04-13T18:59:30.576Z,94092
2023-04-13T19:02:56.159Z,94090
2023-04-13T19:06:21.359Z,94087
2023-04-13T19:09:46.677Z,94080
2023-04-13T19:13:12.002Z,94078
2023-04-13T19:16:37.383Z,94076
2023-04-13T19:20:02.697Z,94072
2023-04-13T19:23:28.062Z,94074
2023-04-13T19:26:53.381Z,94074
2023-04-13T19:30:18.752Z,94072
2023-04-13T19:33:44.105Z,94067
2023-04-13T19:37:09.421Z,94076
2023-04-13T19:40:34.824Z,94081
2023-04-13T19:44:00.485Z,94078
2023-04-13T19:47:25.618Z,94080
2023-04-13T19:50:50.978Z,94073
2023-04-13T19:54:16.348Z,94069
2023-04-13T19:57:41.826Z,94083
2023-04-13T20:01:07.109Z,94084
2023-04-13T20:04:32.508Z,94087
2023-04-13T20:07:57.846Z,94090
2023-04-13T20:11:23.222Z,94090
2023-04-13T20:14:48.624Z,94088
2023-04-13T20:18:13.965Z,94096
2023-04-13T20:21:39.401Z,94095
2023-04-13T20:25:04.731Z,94097
2023-04-13T20:28:30.112Z,94097
2023-04-13T20:31:55.552Z,94095
2023-04-13T20:35:20.862Z,94093
2023-04-13T20:38:46.216Z,94082
2023-04-13T20:42:11.654Z,94077
2023-04-13T20:45:37.019Z,94084
2023-04-13T20:49:02.425Z,94082
2023-04-13T20:52:27.756Z,94081
2023-04-13T20:55:53.145Z,94082
2023-04-13T20:59:18.659Z,94082
2023-04-13T21:02:43.915Z,94080
2023-04-13T21:06:09.300Z,94082
2023-04-13T21:09:34.582Z,94083
2023-04-13T21:12:59.934Z,94094
2023-04-13T21:16:25.344Z,94096
2023-04-13T21:19:50.666Z,94093
2023-04-13T21:23:16.072Z,94090
2023-04-13T21:26:41.361Z,94090
2023-04-13T21:30:06.714Z,94097
2023-04-13T21:33:32.048Z,94092
2023-04-13T21:36:57.403Z,94086
2023-04-13T21:40:22.829Z,94076
2023-04-13T21:43:48.150Z,94065
2023-04-13T21:47:13.494Z,94052
2023-04-13T21:50:38.892Z,94039
2023-04-13T21:54:04.201Z,94034
2023-04-13T21:57:29.589Z,94023
2023-04-13T22:00:54.943Z,94025
2023-04-13T22:04:20.469Z,94034
2023-04-13T22:07:45.619Z,94037
2023-04-13T22:11:10.952Z,94036
2023-04-13T22:14:36.306Z,94044
2023-04-13T22:18:01.620Z,94050
2023-04-13T22:21:26.930Z,94050
2023-04-13T22:24:52.247Z,94058
2023-04-13T22:28:17.593Z,94063
2023-04-13T22:31:43.029Z,94083
2023-04-13T22:35:08.253Z,94089
2023-04-13T22:38:33.561Z,94091
2023-04-13T22:41:58.912Z,94093
2023-04-13T22:45:24.256Z,94092
2023-04-13T22:48:49.610Z,94087
2023-04-13T22:52:14.876Z,94081
2023-04-13T22:55:40.199Z,94075
2023-04-13T22:59:05.467Z,94074
2023-04-13T23:02:30.935Z,94076
2023-04-13T23:05:56.128Z,94075
2023-04-13T23:09:21.426Z,94075
2023-04-13T23:12:46.706Z,94076
2023-04-13T23:16:12.029Z,94078
2023-04-13T23:19:37.346Z,94075
2023-04-13T23:23:02.664Z,94070
2023-04-13T23:26:27.981Z,94072
2023-04-13T23:29:53.304Z,94068
2023-04-13T23:33:18.636Z,94072
2023-04-13T23:36:43.978Z,94075
2023-04-13T23:40:09.340Z,94069
2023-04-13T23:43:34.633Z,94069
2023-04-13T23:46:59.944Z,94073
2023-04-13T23:50:25.274Z,94074
2023-04-13T23:53:50.653Z,94074
2023-04-13T23:57:15.997Z,94081
